FEFT

Berbérati Airport

Berbérati, Central African Republic
METAR FEFT 211000Z 28016KT 9999 BKN023 29/24 Q1011
Observed Flight Rules
Apr-21 @ 10:00 UTC (6 hours ago) Marginal Visual Flight Rules
Wind Visibility Clouds
280° at 16 knots 10,000+ meters
  • Broken at 2,300' AGL
Temperatures Readings
Current 29°C / 84°F
Dewpoint 24°C / 75°F
Humidity 74%
Altimeter 29.85" Hg
Pressure 1011 hPa
Elevation 583
METAR FEFT 211000Z 28016KT 9999 BKN023 29/24 Q1011
Observed Flight Rules
Apr-21 @ 10:00 UTC
(6 hours ago)
MVFR
Wind Visibility
280° at 16 knots 10,000+ meters
Clouds
  • Broken at 2,300' AGL
Temperature Dewpoint
29°C / 84°F 24°C / 75°F
Humidity Altimeter Pressure
74% 29.85" Hg 1011 hPa